Time;durP1;ratioP1;P1;durP2;ratioP2;P2;SDS_P1;SDS_P2;PMS_P1;PMS_P2;Temp;Humidity;BMP_temperature;BMP_pressure;BME280_temperature;BME280_humidity;BME280_pressure;Samples;Min_cycle;Max_cycle;Signal;HPM_P1;HPM_P2
2022/05/30 00:01:17;;;;;;;10.15;3.58;;;8.50;99.90;;;;;;5096260;28;21375;-71
2022/05/30 00:03:46;;;;;;;10.10;3.20;;;8.40;99.90;;;;;;5063733;28;20040;-71
2022/05/30 00:06:15;;;;;;;11.07;3.50;;;8.50;99.90;;;;;;5086012;28;20093;-71
2022/05/30 00:08:41;;;;;;;8.07;3.03;;;8.40;99.90;;;;;;5085030;28;20040;-71
2022/05/30 00:11:10;;;;;;;8.98;2.78;;;8.40;99.90;;;;;;5053434;28;20052;-71
2022/05/30 00:13:37;;;;;;;6.50;2.60;;;8.40;99.90;;;;;;5106610;28;20126;-71
2022/05/30 00:16:08;;;;;;;11.02;3.50;;;8.30;99.90;;;;;;5081203;28;20040;-71
2022/05/30 00:18:35;;;;;;;8.40;2.95;;;8.30;99.90;;;;;;5085345;28;20041;-71
2022/05/30 00:21:01;;;;;;;6.90;2.35;;;8.30;99.90;;;;;;5085514;28;20505;-71
2022/05/30 00:23:26;;;;;;;10.32;2.83;;;8.30;99.90;;;;;;5082852;28;20032;-71
2022/05/30 00:25:52;;;;;;;9.57;3.08;;;8.30;99.90;;;;;;5070356;28;20043;-71
2022/05/30 00:28:19;;;;;;;8.15;2.40;;;8.30;99.90;;;;;;5078043;28;20074;-70
2022/05/30 00:30:46;;;;;;;9.70;2.88;;;8.20;99.90;;;;;;5103112;28;20043;-71
2022/05/30 00:33:12;;;;;;;6.75;2.47;;;8.10;99.90;;;;;;5081491;28;20044;-72
2022/05/30 00:35:39;;;;;;;6.18;2.50;;;8.10;99.90;;;;;;5102641;28;20067;-72
2022/05/30 00:38:05;;;;;;;8.50;2.70;;;8.10;99.90;;;;;;5086217;28;20064;-71
2022/05/30 00:40:31;;;;;;;11.20;3.15;;;8.10;99.90;;;;;;5071264;28;20455;-71
2022/05/30 00:43:15;;;;;;;11.02;3.45;;;8.10;99.90;;;;;;5103474;28;20039;-72
2022/05/30 00:45:41;;;;;;;8.05;3.17;;;8.00;99.90;;;;;;5085728;28;20076;-72
2022/05/30 00:48:08;;;;;;;10.35;4.03;;;8.10;99.90;;;;;;5101060;27;20035;-71
2022/05/30 00:50:35;;;;;;;10.13;3.72;;;8.00;99.90;;;;;;5103211;28;20650;-72
2022/05/30 00:53:04;;;;;;;10.98;3.60;;;8.00;99.90;;;;;;5068107;28;20463;-70
2022/05/30 00:55:30;;;;;;;8.82;3.13;;;7.90;99.90;;;;;;5103277;28;20062;-71
2022/05/30 00:57:57;;;;;;;14.85;4.00;;;7.90;99.90;;;;;;5102566;27;20082;-71
2022/05/30 01:00:25;;;;;;;7.82;2.95;;;7.90;99.90;;;;;;5099371;28;20055;-71
2022/05/30 01:08:26;;;;;;;8.02;3.25;;;7.80;99.90;;;;;;5102520;28;20063;-71
2022/05/30 01:10:52;;;;;;;12.57;4.18;;;7.70;99.90;;;;;;5099743;28;20059;-71
2022/05/30 01:13:18;;;;;;;6.85;2.95;;;7.70;99.90;;;;;;5102339;28;20059;-71
2022/05/30 01:15:44;;;;;;;10.05;3.80;;;7.60;99.90;;;;;;5102818;28;20100;-72
2022/05/30 01:18:23;;;;;;;11.05;4.13;;;7.60;99.90;;;;;;5095134;28;20039;-71
2022/05/30 01:21:16;;;;;;;7.95;3.17;;;7.60;99.90;;;;;;5083641;28;20448;-71
2022/05/30 01:24:14;;;;;;;7.43;3.40;;;7.50;99.90;;;;;;5100090;28;20060;-71
2022/05/30 01:27:09;;;;;;;7.13;2.88;;;7.50;99.90;;;;;;5082373;28;20047;-70
2022/05/30 01:29:44;;;;;;;7.72;2.58;;;7.40;99.90;;;;;;5132762;27;20074;-70
2022/05/30 01:32:15;;;;;;;9.57;4.00;;;7.20;99.90;;;;;;5085542;28;20040;-70
2022/05/30 01:34:41;;;;;;;6.18;3.10;;;7.20;99.90;;;;;;5080091;28;20052;-70
2022/05/30 01:37:07;;;;;;;11.85;4.63;;;7.10;99.90;;;;;;5082994;28;20413;-70
2022/05/30 01:39:33;;;;;;;9.90;3.67;;;7.10;99.90;;;;;;5068925;28;20409;-70
2022/05/30 01:41:58;;;;;;;7.32;3.35;;;7.10;99.90;;;;;;5083595;28;20474;-70
2022/05/30 01:44:24;;;;;;;11.23;3.95;;;7.00;99.90;;;;;;5052686;28;20451;-70
2022/05/30 01:46:50;;;;;;;10.05;3.50;;;7.00;99.90;;;;;;5093268;28;20044;-70
2022/05/30 01:49:16;;;;;;;10.40;3.85;;;7.00;99.90;;;;;;5085194;28;20047;-70
2022/05/30 01:51:42;;;;;;;8.73;3.75;;;7.10;99.90;;;;;;5063573;28;20032;-71
2022/05/30 01:54:08;;;;;;;6.63;3.17;;;7.10;99.90;;;;;;5086381;28;20036;-71
2022/05/30 01:56:34;;;;;;;7.65;3.60;;;7.10;99.90;;;;;;5097778;28;20047;-70
2022/05/30 01:59:00;;;;;;;7.07;3.00;;;7.10;99.90;;;;;;5043226;28;21238;-71
2022/05/30 02:01:27;;;;;;;8.48;3.97;;;7.00;99.90;;;;;;5069077;28;20043;-70
2022/05/30 02:03:54;;;;;;;9.10;3.85;;;7.00;99.90;;;;;;5075660;28;20329;-70
2022/05/30 02:06:26;;;;;;;11.02;4.22;;;7.00;99.90;;;;;;5092612;28;20051;-70
2022/05/30 02:08:55;;;;;;;13.98;4.07;;;6.90;99.90;;;;;;5077366;28;20039;-70
2022/05/30 02:11:21;;;;;;;10.43;3.97;;;6.90;99.90;;;;;;5083290;28;20052;-70
2022/05/30 02:13:47;;;;;;;10.25;4.97;;;6.90;99.90;;;;;;5055851;28;20090;-70
2022/05/30 02:18:59;;;;;;;8.15;3.38;;;6.70;99.90;;;;;;5074491;28;20048;-71
2022/05/30 02:21:25;;;;;;;9.05;4.80;;;6.70;99.90;;;;;;5087492;28;20071;-71
2022/05/30 02:23:51;;;;;;;12.13;4.60;;;6.70;99.90;;;;;;5076705;28;20040;-70
2022/05/30 02:26:17;;;;;;;7.55;3.10;;;6.60;99.90;;;;;;5095185;28;20052;-70
2022/05/30 02:28:43;;;;;;;10.85;4.35;;;6.50;99.90;;;;;;5068525;28;20039;-70
2022/05/30 02:31:09;;;;;;;8.90;4.00;;;6.50;99.90;;;;;;5086830;28;20035;-70
2022/05/30 02:39:03;;;;;;;10.35;3.70;;;6.50;99.90;;;;;;5073670;28;20083;-71
2022/05/30 02:41:29;;;;;;;9.15;5.15;;;6.50;99.90;;;;;;5096163;28;20177;-72
2022/05/30 02:43:55;;;;;;;8.70;4.82;;;6.50;99.90;;;;;;5085207;28;20040;-71
2022/05/30 02:46:21;;;;;;;11.85;5.53;;;6.50;99.90;;;;;;5074680;28;20478;-72
2022/05/30 02:48:47;;;;;;;10.40;5.20;;;6.40;99.90;;;;;;5074847;28;20036;-71
2022/05/30 02:51:12;;;;;;;32.03;6.85;;;6.30;99.90;;;;;;5085769;28;20244;-71
2022/05/30 02:53:38;;;;;;;16.58;5.68;;;6.20;99.90;;;;;;5070464;28;20040;-72
2022/05/30 02:56:04;;;;;;;11.05;3.95;;;6.10;99.90;;;;;;5083340;28;20243;-71
2022/05/30 02:58:31;;;;;;;25.67;6.45;;;6.10;99.90;;;;;;5080640;28;20104;-71
2022/05/30 03:00:57;;;;;;;5.07;3.30;;;6.00;99.90;;;;;;5057518;28;20047;-71
2022/05/30 03:03:23;;;;;;;12.70;5.43;;;6.00;99.90;;;;;;5059784;28;20195;-71
2022/05/30 03:05:49;;;;;;;9.65;5.13;;;5.90;99.90;;;;;;5083797;28;20048;-71
2022/05/30 03:08:14;;;;;;;9.80;3.95;;;5.90;99.90;;;;;;5085647;28;20143;-71
2022/05/30 03:10:40;;;;;;;37.35;7.07;;;5.90;99.90;;;;;;5080801;28;20080;-71
2022/05/30 03:13:06;;;;;;;7.00;3.08;;;5.90;99.90;;;;;;5088054;28;20052;-71
2022/05/30 03:15:33;;;;;;;6.60;3.97;;;5.80;99.90;;;;;;5070803;27;20040;-71
2022/05/30 03:17:59;;;;;;;8.00;4.18;;;5.80;99.90;;;;;;5091557;28;20040;-72
2022/05/30 03:20:25;;;;;;;6.97;3.70;;;5.90;99.90;;;;;;5073802;28;20044;-71
2022/05/30 03:22:51;;;;;;;10.05;4.95;;;5.90;99.90;;;;;;5090742;27;20047;-71
2022/05/30 03:25:18;;;;;;;10.43;5.03;;;5.90;99.90;;;;;;5081905;28;20044;-71
2022/05/30 03:27:44;;;;;;;7.35;4.25;;;6.00;99.90;;;;;;5099391;28;20049;-71
2022/05/30 03:30:11;;;;;;;8.63;4.20;;;6.00;99.90;;;;;;5098175;28;20043;-71
2022/05/30 03:32:37;;;;;;;5.88;3.95;;;6.00;99.90;;;;;;5080304;28;20045;-71
2022/05/30 03:35:04;;;;;;;7.38;4.13;;;6.00;99.90;;;;;;5059175;28;20043;-73
2022/05/30 03:37:31;;;;;;;6.50;3.85;;;6.00;99.90;;;;;;5106265;28;20047;-73
2022/05/30 03:39:57;;;;;;;5.90;3.63;;;6.00;99.90;;;;;;5072522;28;20844;-70
2022/05/30 03:42:22;;;;;;;6.13;3.50;;;5.90;99.90;;;;;;5088660;28;20372;-70
2022/05/30 03:44:48;;;;;;;6.13;3.42;;;5.90;99.90;;;;;;5097022;28;20036;-70
2022/05/30 03:47:14;;;;;;;5.38;3.28;;;6.00;99.90;;;;;;5071418;28;20356;-70
2022/05/30 03:49:40;;;;;;;5.47;3.45;;;6.00;99.90;;;;;;5074500;28;20044;-71
2022/05/30 03:52:07;;;;;;;5.50;3.10;;;5.90;99.90;;;;;;5087851;27;20047;-70
2022/05/30 03:54:33;;;;;;;7.05;3.60;;;5.90;99.90;;;;;;5085231;28;20051;-71
2022/05/30 03:56:59;;;;;;;6.63;3.95;;;5.90;99.90;;;;;;5091948;28;20036;-71
2022/05/30 03:59:24;;;;;;;5.45;3.58;;;5.90;99.90;;;;;;5106513;27;20046;-71
2022/05/30 04:01:50;;;;;;;7.82;3.90;;;5.90;99.90;;;;;;5059977;28;20043;-71
2022/05/30 04:04:16;;;;;;;6.30;4.03;;;5.90;99.90;;;;;;5074384;28;20044;-71
2022/05/30 04:06:42;;;;;;;7.63;4.65;;;5.90;99.90;;;;;;5079349;28;20047;-71
2022/05/30 04:09:08;;;;;;;7.13;4.80;;;5.90;99.90;;;;;;5105554;27;20038;-71
2022/05/30 04:11:35;;;;;;;6.57;3.75;;;6.00;99.90;;;;;;5083048;28;20422;-71
2022/05/30 04:14:01;;;;;;;8.65;5.07;;;5.90;99.90;;;;;;5094062;28;20046;-71
2022/05/30 04:16:27;;;;;;;8.55;4.07;;;6.00;99.90;;;;;;5100041;27;20040;-71
2022/05/30 04:18:52;;;;;;;9.55;5.00;;;6.00;99.90;;;;;;5088953;28;20816;-71
2022/05/30 04:21:18;;;;;;;10.38;5.95;;;6.00;99.90;;;;;;5073009;28;20055;-71
2022/05/30 04:23:44;;;;;;;8.80;5.60;;;6.00;99.90;;;;;;5091964;28;20092;-71
2022/05/30 04:26:15;;;;;;;7.50;4.32;;;6.00;99.90;;;;;;5101226;28;20100;-71
2022/05/30 04:28:41;;;;;;;8.07;4.80;;;6.00;99.90;;;;;;5087862;28;20047;-71
2022/05/30 04:31:12;;;;;;;9.25;5.07;;;6.00;99.90;;;;;;5084781;28;20390;-71
2022/05/30 04:33:38;;;;;;;6.45;4.35;;;6.10;99.90;;;;;;5094339;28;20054;-71
2022/05/30 04:36:07;;;;;;;7.70;4.30;;;6.00;99.90;;;;;;5101127;28;20051;-71
2022/05/30 04:38:33;;;;;;;9.70;6.13;;;6.00;99.90;;;;;;5072240;28;20139;-71
2022/05/30 04:41:00;;;;;;;6.43;4.30;;;6.00;99.90;;;;;;5097330;27;20039;-71
2022/05/30 04:43:25;;;;;;;5.00;4.32;;;6.00;99.90;;;;;;5094131;28;20040;-71
2022/05/30 04:46:06;;;;;;;7.32;4.80;;;6.10;99.90;;;;;;5088348;28;20055;-71
2022/05/30 04:48:32;;;;;;;;;;;6.20;99.90;;;;;;5068912;28;20064;-71
2022/05/30 04:50:58;;;;;;;9.18;6.00;;;6.20;99.90;;;;;;5121812;27;19956;-71
2022/05/30 04:53:24;;;;;;;8.98;6.22;;;6.30;99.90;;;;;;5084488;27;20051;-71
2022/05/30 04:55:49;;;;;;;9.75;7.20;;;6.40;99.90;;;;;;5080669;28;20032;-71
2022/05/30 04:58:15;;;;;;;7.68;6.32;;;6.50;99.90;;;;;;5072842;28;20048;-71
2022/05/30 05:00:41;;;;;;;9.20;6.50;;;6.50;99.90;;;;;;5093019;28;20057;-71
2022/05/30 05:03:07;;;;;;;7.50;5.72;;;6.60;99.90;;;;;;5081611;28;20047;-70
2022/05/30 05:05:32;;;;;;;9.73;7.00;;;6.70;99.90;;;;;;5075222;27;20490;-70
2022/05/30 05:08:16;;;;;;;9.77;6.78;;;6.80;99.90;;;;;;5093212;28;20055;-70
2022/05/30 05:10:59;;;;;;;9.68;6.53;;;6.90;99.90;;;;;;5090277;28;20054;-71
2022/05/30 05:13:24;;;;;;;10.07;6.40;;;6.90;99.90;;;;;;5073869;28;20040;-70
2022/05/30 05:15:56;;;;;;;10.07;7.68;;;7.00;99.90;;;;;;5064730;28;20066;-70
2022/05/30 05:18:22;;;;;;;12.10;7.28;;;7.00;99.90;;;;;;5064958;28;20566;-71
2022/05/30 05:20:48;;;;;;;10.18;6.07;;;7.10;99.90;;;;;;5063498;28;20036;-70
2022/05/30 05:23:14;;;;;;;10.40;5.90;;;7.20;99.90;;;;;;5076262;28;20054;-71
2022/05/30 05:25:40;;;;;;;7.95;5.60;;;7.30;99.90;;;;;;5062534;28;20090;-71
2022/05/30 05:28:06;;;;;;;9.60;5.57;;;7.50;99.90;;;;;;5081311;28;20046;-72
2022/05/30 05:30:33;;;;;;;6.88;5.55;;;7.60;99.90;;;;;;5080432;28;20080;-71
2022/05/30 05:32:59;;;;;;;8.10;5.13;;;7.70;99.90;;;;;;5077252;28;20047;-71
2022/05/30 05:35:24;;;;;;;9.88;5.43;;;7.80;99.90;;;;;;5073110;28;20145;-72
2022/05/30 05:37:51;;;;;;;11.23;5.47;;;7.80;99.90;;;;;;5076613;28;20044;-71
2022/05/30 05:40:17;;;;;;;9.10;4.38;;;7.90;99.90;;;;;;5058097;28;20533;-71
2022/05/30 05:42:43;;;;;;;8.40;4.85;;;8.00;99.90;;;;;;5067012;28;20094;-72
2022/05/30 05:45:10;;;;;;;9.10;4.80;;;8.10;99.90;;;;;;5073203;28;20123;-72
2022/05/30 05:47:36;;;;;;;8.15;4.20;;;8.30;99.90;;;;;;5075419;28;20040;-72
2022/05/30 05:50:03;;;;;;;7.70;4.22;;;8.50;99.90;;;;;;5074923;28;20040;-71
2022/05/30 05:52:29;;;;;;;6.88;4.28;;;8.60;99.90;;;;;;5077891;28;20098;-72
2022/05/30 05:54:59;;;;;;;6.63;3.88;;;8.70;99.90;;;;;;5077717;28;20044;-72
2022/05/30 05:57:28;;;;;;;6.93;4.00;;;8.80;99.90;;;;;;5076391;28;20318;-72
2022/05/30 05:59:53;;;;;;;7.90;3.60;;;8.90;99.90;;;;;;5077564;28;20506;-72
2022/05/30 06:02:20;;;;;;;7.80;3.78;;;9.00;99.90;;;;;;5075350;28;20046;-72
2022/05/30 06:04:46;;;;;;;5.80;3.35;;;9.10;99.90;;;;;;5061497;28;20051;-72
2022/05/30 06:07:12;;;;;;;3.63;2.20;;;9.20;99.90;;;;;;5076362;28;20045;-71
2022/05/30 06:09:39;;;;;;;3.58;2.20;;;9.30;99.90;;;;;;5064056;28;20040;-71
2022/05/30 06:12:07;;;;;;;6.35;2.40;;;9.40;99.90;;;;;;5062578;28;20058;-71
2022/05/30 06:14:33;;;;;;;4.90;2.17;;;9.50;99.90;;;;;;5064197;28;20043;-71
2022/05/30 06:17:00;;;;;;;6.20;2.38;;;9.50;99.90;;;;;;5068385;28;20044;-70
2022/05/30 06:19:27;;;;;;;6.15;2.38;;;9.60;99.90;;;;;;5079501;28;20142;-70
2022/05/30 06:21:52;;;;;;;7.45;2.60;;;9.60;99.90;;;;;;5065741;28;20048;-71
2022/05/30 06:24:18;;;;;;;5.75;2.25;;;9.70;99.90;;;;;;5079772;28;20050;-70
2022/05/30 06:26:44;;;;;;;5.22;2.50;;;9.80;99.90;;;;;;5061795;28;20278;-70
2022/05/30 06:29:14;;;;;;;7.13;2.60;;;9.90;99.90;;;;;;5077206;28;20474;-71
2022/05/30 06:31:41;;;;;;;4.38;2.42;;;10.10;99.90;;;;;;5093758;28;20044;-71
2022/05/30 06:34:07;;;;;;;5.38;2.20;;;10.20;99.90;;;;;;5077869;28;20048;-72
2022/05/30 06:36:34;;;;;;;4.72;2.10;;;10.30;99.90;;;;;;5095327;28;20043;-71
2022/05/30 06:39:00;;;;;;;5.70;1.98;;;10.40;99.90;;;;;;5076521;28;20073;-71
2022/05/30 06:41:29;;;;;;;5.65;2.28;;;10.60;99.90;;;;;;5081598;28;20201;-71
2022/05/30 06:44:05;;;;;;;6.07;2.22;;;10.60;99.90;;;;;;5076376;28;20044;-71
2022/05/30 06:46:33;;;;;;;3.35;1.70;;;10.70;99.90;;;;;;5098980;27;20514;-71
2022/05/30 06:48:59;;;;;;;4.82;1.60;;;10.70;99.90;;;;;;5084401;28;20039;-71
2022/05/30 06:51:27;;;;;;;2.80;1.60;;;10.80;99.90;;;;;;5085092;28;20100;-74
2022/05/30 06:53:54;;;;;;;5.32;1.98;;;10.90;99.90;;;;;;5084306;28;20410;-74
2022/05/30 06:56:25;;;;;;;3.90;1.48;;;11.00;99.90;;;;;;5079773;28;20046;-74
2022/05/30 06:58:52;;;;;;;3.63;1.40;;;11.20;99.90;;;;;;5080730;28;20127;-74
2022/05/30 07:01:20;;;;;;;3.40;1.30;;;11.30;99.90;;;;;;5069754;28;20167;-74
2022/05/30 07:03:46;;;;;;;2.92;0.93;;;11.50;99.90;;;;;;5096862;28;20057;-75
2022/05/30 07:06:17;;;;;;;2.63;0.88;;;11.50;99.90;;;;;;5102116;28;20040;-75
2022/05/30 07:08:46;;;;;;;4.70;1.20;;;11.60;99.90;;;;;;5098809;28;20494;-75
2022/05/30 07:11:17;;;;;;;3.20;1.00;;;11.70;99.90;;;;;;5083704;28;20757;-74
2022/05/30 07:13:44;;;;;;;3.00;1.05;;;11.70;99.90;;;;;;5095944;28;20051;-75
2022/05/30 07:16:10;;;;;;;3.80;1.25;;;11.70;99.90;;;;;;5081740;28;20062;-74
2022/05/30 07:18:37;;;;;;;3.20;0.90;;;11.70;99.90;;;;;;5105034;27;20040;-71
2022/05/30 07:21:05;;;;;;;3.35;0.90;;;11.60;99.90;;;;;;5097774;28;20401;-71
2022/05/30 07:23:33;;;;;;;2.58;0.60;;;11.70;99.90;;;;;;5098368;28;20051;-70
2022/05/30 07:26:01;;;;;;;2.15;0.93;;;11.90;99.90;;;;;;5083974;28;20119;-70
2022/05/30 07:28:29;;;;;;;1.98;0.60;;;12.10;99.90;;;;;;5099643;28;20535;-70
2022/05/30 07:31:17;;;;;;;3.15;0.80;;;12.30;99.90;;;;;;5065799;28;20058;-71
2022/05/30 07:33:45;;;;;;;3.13;0.70;;;12.40;99.90;;;;;;5086280;28;20032;-70
2022/05/30 07:36:14;;;;;;;2.00;0.68;;;12.60;99.90;;;;;;5085622;28;20079;-70
2022/05/30 07:38:40;;;;;;;3.20;0.85;;;12.70;99.90;;;;;;5104233;28;20394;-70
2022/05/30 07:41:06;;;;;;;1.30;0.55;;;12.90;99.90;;;;;;5083611;28;20119;-70
2022/05/30 07:43:32;;;;;;;1.80;0.70;;;12.80;99.90;;;;;;5070465;28;20047;-70
2022/05/30 07:46:03;;;;;;;5.65;0.80;;;12.70;99.90;;;;;;5100010;28;20039;-71
2022/05/30 07:48:29;;;;;;;2.70;0.65;;;12.50;99.90;;;;;;5100768;28;20078;-69
2022/05/30 07:50:56;;;;;;;3.00;0.73;;;12.40;99.90;;;;;;5084277;28;20067;-71
2022/05/30 07:53:22;;;;;;;2.30;0.55;;;12.40;99.90;;;;;;5082361;28;20439;-71
2022/05/30 07:55:48;;;;;;;2.47;0.60;;;12.60;99.90;;;;;;5083214;28;20069;-71
2022/05/30 07:58:14;;;;;;;3.45;0.90;;;12.80;99.90;;;;;;5065177;28;20043;-71
2022/05/30 08:00:40;;;;;;;2.95;0.68;;;13.00;99.90;;;;;;5097947;28;20519;-71
2022/05/30 08:03:06;;;;;;;2.60;0.60;;;13.30;99.90;;;;;;5080688;28;20506;-71
2022/05/30 08:05:32;;;;;;;3.80;0.63;;;13.40;99.90;;;;;;5093304;28;20397;-71
2022/05/30 08:07:58;;;;;;;2.40;0.50;;;13.40;99.90;;;;;;5080320;28;20031;-70
2022/05/30 08:10:24;;;;;;;1.38;0.40;;;13.20;99.90;;;;;;5099711;28;20047;-71
2022/05/30 08:12:50;;;;;;;2.10;0.55;;;12.90;99.90;;;;;;5099209;27;20513;-71
2022/05/30 08:15:16;;;;;;;2.47;0.55;;;12.70;99.90;;;;;;5101586;27;20082;-70
2022/05/30 08:17:42;;;;;;;1.30;0.85;;;12.60;99.90;;;;;;5084934;27;20150;-70
2022/05/30 08:20:11;;;;;;;3.22;0.80;;;12.40;99.90;;;;;;5084769;27;20151;-70
2022/05/30 08:22:38;;;;;;;1.85;1.02;;;12.30;99.90;;;;;;5105003;27;20090;-70
2022/05/30 08:25:16;;;;;;;4.55;0.98;;;12.10;99.90;;;;;;5088461;27;20039;-70
2022/05/30 08:27:43;;;;;;;1.75;0.85;;;12.00;99.90;;;;;;5102289;27;20042;-71
2022/05/30 08:30:12;;;;;;;3.50;1.10;;;11.80;99.90;;;;;;5107113;27;20039;-71
2022/05/30 08:32:40;;;;;;;2.55;1.02;;;11.60;99.90;;;;;;5079208;27;20088;-72
2022/05/30 08:35:08;;;;;;;1.98;0.70;;;11.60;99.90;;;;;;5083523;27;20050;-72
2022/05/30 08:37:34;;;;;;;2.13;0.70;;;11.60;99.90;;;;;;5083955;27;20343;-72
2022/05/30 08:42:51;;;;;;;2.10;0.75;;;11.60;99.90;;;;;;5100423;27;20434;-72
2022/05/30 08:45:20;;;;;;;1.30;0.50;;;11.70;99.90;;;;;;5092061;27;20572;-71
2022/05/30 08:47:56;;;;;;;2.03;0.55;;;11.80;99.90;;;;;;5094148;27;20043;-72
2022/05/30 08:50:34;;;;;;;1.70;0.70;;;12.00;99.90;;;;;;5139040;27;20100;-72
2022/05/30 08:53:34;;;;;;;2.20;0.70;;;12.20;99.90;;;;;;5098460;27;20045;-72
2022/05/30 08:56:06;;;;;;;2.00;0.60;;;12.40;99.90;;;;;;5102076;27;20047;-72
2022/05/30 08:59:13;;;;;;;2.55;0.55;;;12.50;99.90;;;;;;5137101;27;20055;-74
2022/05/30 09:01:43;;;;;;;0.95;0.40;;;12.50;99.90;;;;;;5082962;27;20091;-75
2022/05/30 09:04:36;;;;;;;2.78;0.50;;;12.60;99.90;;;;;;5084956;27;20582;-75
2022/05/30 09:07:16;;;;;;;1.95;0.50;;;12.60;99.90;;;;;;5104082;27;20038;-74
2022/05/30 09:09:55;;;;;;;1.65;0.30;;;12.70;99.90;;;;;;5080071;27;20047;-75
2022/05/30 09:12:46;;;;;;;0.40;0.32;;;12.70;99.90;;;;;;5133692;27;20044;-75
2022/05/30 09:15:22;;;;;;;1.60;0.50;;;12.80;99.90;;;;;;5083239;28;20126;-75
2022/05/30 09:17:57;;;;;;;2.05;0.50;;;13.00;99.90;;;;;;5077701;28;20048;-75
2022/05/30 09:20:24;;;;;;;1.92;0.63;;;13.10;99.90;;;;;;5103341;28;20115;-73
2022/05/30 09:22:51;;;;;;;2.50;0.50;;;13.20;99.90;;;;;;5098898;28;21247;-72
2022/05/30 09:28:08;;;;;;;2.80;0.90;;;14.00;99.90;;;;;;5097529;28;20048;-74
2022/05/30 09:30:57;;;;;;;2.13;0.60;;;14.30;99.90;;;;;;5081311;28;20054;-73
2022/05/30 09:33:31;;;;;;;1.20;0.40;;;14.50;99.90;;;;;;5086639;28;20490;-73
2022/05/30 09:36:13;;;;;;;1.75;0.38;;;14.50;99.90;;;;;;5099471;28;20406;-72
2022/05/30 09:38:41;;;;;;;1.30;0.25;;;14.40;99.90;;;;;;5083122;28;20044;-76
2022/05/30 09:41:30;;;;;;;1.85;0.30;;;14.30;99.90;;;;;;5100213;28;20104;-77
2022/05/30 09:44:03;;;;;;;1.23;0.20;;;14.20;99.90;;;;;;5080044;28;20032;-77
2022/05/30 09:46:36;;;;;;;1.23;0.30;;;14.10;99.90;;;;;;5098571;27;20097;-77
2022/05/30 09:49:05;;;;;;;1.42;0.43;;;14.00;99.90;;;;;;5098145;28;20044;-77
2022/05/30 09:51:39;;;;;;;0.93;0.20;;;13.90;99.90;;;;;;5083576;28;20168;-77
2022/05/30 09:54:09;;;;;;;1.08;0.30;;;13.80;99.90;;;;;;5083978;28;20065;-77
2022/05/30 09:56:41;;;;;;;1.48;0.68;;;13.70;99.90;;;;;;5099124;28;20043;-76
2022/05/30 09:59:30;;;;;;;1.55;0.38;;;13.70;99.90;;;;;;5097780;28;20044;-76
2022/05/30 10:01:56;;;;;;;1.60;0.40;;;13.60;99.90;;;;;;5099545;28;20031;-78
2022/05/30 10:04:41;;;;;;;2.50;0.50;;;13.50;99.90;;;;;;5081820;28;20054;-77
2022/05/30 10:07:09;;;;;;;1.38;0.40;;;13.40;99.90;;;;;;5100419;28;20071;-77
2022/05/30 10:09:54;;;;;;;0.50;0.22;;;13.30;99.90;;;;;;5100579;28;20389;-78
2022/05/30 10:12:31;;;;;;;2.17;0.50;;;13.20;99.90;;;;;;5093752;28;20143;-77
2022/05/30 10:14:57;;;;;;;1.48;0.30;;;13.10;99.90;;;;;;5106959;27;20130;-77
2022/05/30 10:17:32;;;;;;;0.93;0.47;;;13.10;99.90;;;;;;5071936;28;20051;-78
2022/05/30 10:20:01;;;;;;;1.23;0.38;;;13.00;99.90;;;;;;5087414;28;20460;-78
2022/05/30 10:28:46;;;;;;;3.00;0.75;;;13.40;99.90;;;;;;5091125;28;20067;-78
2022/05/30 10:31:46;;;;;;;2.47;0.60;;;13.50;99.90;;;;;;5102279;28;20050;-77
2022/05/30 10:34:21;;;;;;;0.85;0.40;;;13.50;99.90;;;;;;5083383;28;20307;-78
2022/05/30 10:36:58;;;;;;;2.58;0.73;;;13.50;99.90;;;;;;5071168;28;20363;-77
2022/05/30 10:39:27;;;;;;;1.52;0.50;;;13.60;99.90;;;;;;5097899;28;20055;-72
2022/05/30 10:41:57;;;;;;;1.23;0.50;;;13.70;99.90;;;;;;5099451;28;20055;-72
2022/05/30 10:44:32;;;;;;;2.13;0.75;;;13.70;99.90;;;;;;5091436;28;20054;-73
2022/05/30 10:47:10;;;;;;;1.77;0.60;;;13.70;99.90;;;;;;5093994;28;20043;-72
2022/05/30 10:49:43;;;;;;;1.75;0.77;;;13.80;99.90;;;;;;5096737;28;20371;-73
2022/05/30 10:52:21;;;;;;;1.42;0.70;;;13.90;99.90;;;;;;5094636;28;20080;-73
2022/05/30 10:54:59;;;;;;;2.92;0.60;;;14.00;99.90;;;;;;5086295;28;20079;-72
2022/05/30 10:57:56;;;;;;;1.67;0.30;;;14.10;99.90;;;;;;5072501;28;20062;-72
2022/05/30 11:00:28;;;;;;;1.58;0.68;;;14.30;99.90;;;;;;5071201;28;20048;-72
2022/05/30 11:03:45;;;;;;;2.85;0.50;;;14.50;99.90;;;;;;5082591;28;20455;-72
2022/05/30 11:06:25;;;;;;;0.88;0.30;;;14.60;99.90;;;;;;5058697;28;20049;-72
2022/05/30 11:09:19;;;;;;;0.55;0.30;;;14.60;99.90;;;;;;5077915;28;20517;-71
2022/05/30 11:11:57;;;;;;;1.33;0.30;;;14.80;99.90;;;;;;5090355;28;20139;-72
2022/05/30 11:14:36;;;;;;;1.13;0.30;;;14.80;99.90;;;;;;5081427;28;20090;-71
2022/05/30 11:17:10;;;;;;;2.72;0.60;;;14.70;99.90;;;;;;5085415;28;20109;-72
2022/05/30 11:20:05;;;;;;;2.00;0.68;;;14.50;99.90;;;;;;5102797;28;20047;-73
2022/05/30 11:22:36;;;;;;;2.15;0.70;;;14.40;99.90;;;;;;5085333;28;20467;-72
2022/05/30 11:25:04;;;;;;;2.42;0.70;;;14.10;99.90;;;;;;5074579;28;20365;-72
2022/05/30 11:27:42;;;;;;;2.75;0.82;;;13.90;99.90;;;;;;5086779;28;20048;-72
2022/05/30 11:30:14;;;;;;;3.67;0.82;;;13.80;99.90;;;;;;5085524;27;20028;-72
2022/05/30 11:33:12;;;;;;;6.25;3.08;;;13.70;99.90;;;;;;5101655;28;20516;-72
2022/05/30 11:35:56;;;;;;;11.23;5.55;;;13.60;99.90;;;;;;5078935;28;20406;-72
2022/05/30 11:38:40;;;;;;;7.10;3.80;;;13.40;99.90;;;;;;5085351;28;20052;-72
2022/05/30 11:41:18;;;;;;;6.05;2.40;;;13.30;99.90;;;;;;5087801;28;20051;-72
2022/05/30 11:43:50;;;;;;;6.53;3.03;;;13.20;99.90;;;;;;5071552;28;20052;-72
2022/05/30 11:46:38;;;;;;;6.43;2.65;;;13.20;99.90;;;;;;5074164;28;20048;-72
2022/05/30 11:49:28;;;;;;;3.63;0.77;;;13.10;99.90;;;;;;5095952;28;20379;-72
2022/05/30 11:52:13;;;;;;;;;;;13.00;99.90;;;;;;5096378;28;20541;-72
2022/05/30 11:54:56;;;;;;;2.88;0.75;;;12.90;99.90;;;;;;5111841;27;20508;-72
2022/05/30 11:57:28;;;;;;;1.50;0.60;;;12.90;99.90;;;;;;5089302;28;20048;-72
2022/05/30 11:59:57;;;;;;;2.88;0.85;;;12.90;99.90;;;;;;5074588;28;20054;-72
2022/05/30 12:02:30;;;;;;;3.58;0.70;;;12.90;99.90;;;;;;5090096;28;20116;-73
2022/05/30 12:05:06;;;;;;;3.28;1.05;;;12.90;99.90;;;;;;5079410;28;20537;-73
2022/05/30 12:08:01;;;;;;;2.53;0.82;;;12.80;99.90;;;;;;5096197;28;20052;-72
2022/05/30 12:10:55;;;;;;;4.85;1.17;;;12.90;99.90;;;;;;5094394;27;20040;-73
2022/05/30 12:13:31;;;;;;;2.78;1.02;;;12.90;99.90;;;;;;5101634;27;20055;-73
2022/05/30 12:16:11;;;;;;;3.70;0.85;;;12.90;99.90;;;;;;5097662;27;20507;-73
2022/05/30 12:24:41;;;;;;;3.42;0.82;;;13.00;99.90;;;;;;5080719;27;20932;-73
2022/05/30 12:27:32;;;;;;;2.03;0.73;;;13.00;99.90;;;;;;5100419;27;20035;-72
2022/05/30 12:30:00;;;;;;;1.70;0.70;;;13.00;99.90;;;;;;5097786;27;20390;-73
2022/05/30 12:32:36;;;;;;;3.10;0.95;;;13.00;99.90;;;;;;5065524;27;20090;-73
2022/05/30 12:35:11;;;;;;;2.17;0.60;;;13.00;99.90;;;;;;5103566;27;20042;-73
2022/05/30 12:37:45;;;;;;;3.15;1.00;;;13.00;99.90;;;;;;5120938;27;20126;-72
2022/05/30 12:40:26;;;;;;;2.70;0.80;;;13.10;99.90;;;;;;5138435;27;20046;-72
2022/05/30 12:43:04;;;;;;;2.72;0.70;;;13.10;99.90;;;;;;5134285;27;20031;-72
2022/05/30 12:45:54;;;;;;;2.78;0.82;;;13.20;99.90;;;;;;5100052;27;20050;-71
2022/05/30 12:48:35;;;;;;;2.15;0.45;;;13.30;99.90;;;;;;5089689;27;20051;-72
2022/05/30 12:51:20;;;;;;;3.17;0.65;;;13.40;99.90;;;;;;5087493;27;20066;-72
2022/05/30 12:53:55;;;;;;;1.88;0.50;;;13.50;99.90;;;;;;5104669;27;20054;-72
2022/05/30 12:56:39;;;;;;;2.00;0.90;;;13.60;99.90;;;;;;5103492;27;20042;-71
2022/05/30 12:59:19;;;;;;;2.25;0.80;;;13.90;99.90;;;;;;5093099;27;20046;-71
2022/05/30 13:01:45;;;;;;;3.67;0.73;;;14.10;99.90;;;;;;5089067;27;20054;-72
2022/05/30 13:04:26;;;;;;;2.65;0.52;;;14.30;99.90;;;;;;5102886;27;20039;-71
2022/05/30 13:06:58;;;;;;;2.53;0.63;;;14.50;99.90;;;;;;5137143;27;20043;-73
2022/05/30 13:09:40;;;;;;;3.83;1.00;;;14.70;99.90;;;;;;5140192;27;20039;-72
2022/05/30 13:12:15;;;;;;;3.03;0.70;;;14.70;99.90;;;;;;5121130;27;20044;-71
2022/05/30 13:14:50;;;;;;;1.27;0.68;;;14.70;99.90;;;;;;5084462;28;20498;-71
2022/05/30 13:17:18;;;;;;;3.55;1.23;;;14.60;99.90;;;;;;5134714;27;20101;-72
2022/05/30 13:19:54;;;;;;;5.07;0.93;;;14.60;99.90;;;;;;5101510;28;20139;-72
2022/05/30 13:22:33;;;;;;;3.30;0.60;;;14.70;99.90;;;;;;5099535;27;20460;-72
2022/05/30 13:24:59;;;;;;;4.30;0.60;;;14.70;99.90;;;;;;5103716;28;20048;-72
2022/05/30 13:27:27;;;;;;;2.30;0.60;;;14.70;99.90;;;;;;5079732;28;20141;-72
2022/05/30 13:29:52;;;;;;;3.38;0.82;;;14.70;99.90;;;;;;5082523;28;20050;-72
2022/05/30 13:32:22;;;;;;;4.05;0.80;;;14.70;99.90;;;;;;5081703;28;20040;-72
2022/05/30 13:34:54;;;;;;;2.45;0.60;;;14.60;99.90;;;;;;5085485;28;20074;-72
2022/05/30 13:37:31;;;;;;;4.18;0.98;;;14.60;99.90;;;;;;5086054;28;20060;-72
2022/05/30 13:40:04;;;;;;;5.63;1.00;;;14.60;99.90;;;;;;5083850;28;20044;-68
2022/05/30 13:42:46;;;;;;;3.33;0.80;;;14.50;99.90;;;;;;5083953;28;20040;-68